createdAt,value
2018-08-09T00:01:07.359Z,19.69
2018-08-09T00:03:35.849Z,19.78
2018-08-09T00:06:04.328Z,19.90
2018-08-09T00:08:32.817Z,19.87
2018-08-09T00:11:01.311Z,19.87
2018-08-09T00:13:30.859Z,19.67
2018-08-09T00:15:59.387Z,19.59
2018-08-09T00:18:28.052Z,19.68
2018-08-09T00:20:58.407Z,19.66
2018-08-09T00:23:26.873Z,19.66
2018-08-09T00:25:55.528Z,19.37
2018-08-09T00:28:24.207Z,19.15
2018-08-09T00:30:52.693Z,19.35
2018-08-09T00:33:22.235Z,19.59
2018-08-09T00:35:51.688Z,19.68
2018-08-09T00:38:20.755Z,19.73
2018-08-09T00:40:49.915Z,19.61
2018-08-09T00:43:18.414Z,19.36
2018-08-09T00:45:46.895Z,19.28
2018-08-09T00:48:15.366Z,19.40
2018-08-09T00:50:44.616Z,19.34
2018-08-09T00:53:13.120Z,19.36
2018-08-09T00:55:41.564Z,19.22
2018-08-09T00:58:10.084Z,19.04
2018-08-09T01:00:38.623Z,19.12
2018-08-09T01:03:07.257Z,18.81
2018-08-09T01:05:35.715Z,18.67
2018-08-09T01:08:05.094Z,18.71
2018-08-09T01:10:34.009Z,18.84
2018-08-09T01:13:04.118Z,18.90
2018-08-09T01:15:32.620Z,18.99
2018-08-09T01:18:01.076Z,19.09
2018-08-09T01:20:29.657Z,19.14
2018-08-09T01:22:58.281Z,19.09
2018-08-09T01:25:26.730Z,19.14
2018-08-09T01:27:55.198Z,18.99
2018-08-09T01:30:23.727Z,18.98
2018-08-09T01:32:52.238Z,18.82
2018-08-09T01:35:20.765Z,19.04
2018-08-09T01:37:49.235Z,18.98
2018-08-09T01:40:18.387Z,18.74
2018-08-09T01:42:58.148Z,18.74
2018-08-09T01:45:26.880Z,18.82
2018-08-09T01:47:56.159Z,18.80
2018-08-09T01:50:24.596Z,18.83
2018-08-09T01:52:53.960Z,18.67
2018-08-09T01:55:23.016Z,18.80
2018-08-09T01:57:51.469Z,18.94
2018-08-09T02:00:19.920Z,18.79
2018-08-09T02:02:48.527Z,18.70
2018-08-09T02:05:17.069Z,18.82
2018-08-09T02:07:47.116Z,18.77
2018-08-09T02:10:15.808Z,18.95
2018-08-09T02:12:44.315Z,18.98
2018-08-09T02:15:13.839Z,19.02
2018-08-09T02:17:42.634Z,19.08
2018-08-09T02:20:11.164Z,19.10
2018-08-09T02:22:40.324Z,19.15
2018-08-09T02:25:08.800Z,19.16
2018-08-09T02:27:37.259Z,18.92
2018-08-09T02:30:06.185Z,18.91
2018-08-09T02:32:34.635Z,19.00
2018-08-09T02:35:03.289Z,18.96
2018-08-09T02:37:32.019Z,18.87
2018-08-09T02:40:00.861Z,18.65
2018-08-09T02:42:29.600Z,18.93
2018-08-09T02:44:58.115Z,18.89
2018-08-09T02:47:27.338Z,19.10
2018-08-09T02:49:55.859Z,19.17
2018-08-09T02:52:24.763Z,19.14
2018-08-09T02:54:53.298Z,19.07
2018-08-09T02:57:22.134Z,19.27
2018-08-09T02:59:51.447Z,19.21
2018-08-09T03:02:19.872Z,19.14
2018-08-09T03:04:48.408Z,19.04
2018-08-09T03:07:17.848Z,19.16
2018-08-09T03:09:46.387Z,19.20
2018-08-09T03:12:14.856Z,19.09
2018-08-09T03:14:43.619Z,18.94
2018-08-09T03:17:12.114Z,18.84
2018-08-09T03:19:40.659Z,18.95
2018-08-09T03:22:09.945Z,18.87
2018-08-09T03:24:38.421Z,19.03
2018-08-09T03:27:07.658Z,19.15
2018-08-09T03:29:37.074Z,19.23
2018-08-09T03:32:05.712Z,19.15
2018-08-09T03:34:34.745Z,18.90
2018-08-09T03:37:03.924Z,18.70
2018-08-09T03:39:33.482Z,18.82
2018-08-09T03:42:02.299Z,19.15
2018-08-09T03:44:30.775Z,19.24
2018-08-09T03:47:00.361Z,19.16
2018-08-09T03:49:28.855Z,18.99
2018-08-09T03:51:57.373Z,19.05
2018-08-09T03:54:25.920Z,19.00
2018-08-09T03:56:54.592Z,18.95
2018-08-09T03:59:23.331Z,18.91
2018-08-09T04:01:52.619Z,18.95
2018-08-09T04:04:21.748Z,19.18
2018-08-09T04:06:50.720Z,18.96
2018-08-09T04:09:20.925Z,18.98
2018-08-09T04:11:50.960Z,19.03
2018-08-09T04:14:19.697Z,18.97
2018-08-09T04:16:49.704Z,18.85
2018-08-09T04:19:19.174Z,18.81
2018-08-09T04:21:47.974Z,18.98
2018-08-09T04:24:17.620Z,18.80
2018-08-09T04:26:46.581Z,18.97
2018-08-09T04:29:16.696Z,18.76
2018-08-09T04:31:46.325Z,18.81
2018-08-09T04:34:16.987Z,18.88
2018-08-09T04:36:46.578Z,18.90
2018-08-09T04:39:16.322Z,19.11
2018-08-09T04:41:45.091Z,18.99
2018-08-09T04:44:14.155Z,19.15
2018-08-09T04:46:45.169Z,19.26
2018-08-09T04:49:13.917Z,19.25
2018-08-09T04:51:42.581Z,19.53
2018-08-09T04:54:12.340Z,19.65
2018-08-09T04:56:40.948Z,19.72
2018-08-09T04:59:09.918Z,19.75
2018-08-09T05:01:38.727Z,19.68
2018-08-09T05:04:07.277Z,19.73
2018-08-09T05:06:35.800Z,19.92
2018-08-09T05:09:06.293Z,20.01
2018-08-09T05:11:36.676Z,20.11
2018-08-09T05:14:05.294Z,20.01
2018-08-09T05:16:33.964Z,20.01
2018-08-09T05:19:03.562Z,20.02
2018-08-09T05:21:32.376Z,19.75
2018-08-09T05:24:02.331Z,19.90
2018-08-09T05:26:31.621Z,19.50
2018-08-09T05:29:00.094Z,19.54
2018-08-09T05:31:29.408Z,19.59
2018-08-09T05:33:58.253Z,19.67
2018-08-09T05:36:26.887Z,19.57
2018-08-09T05:38:55.431Z,19.61
2018-08-09T05:41:24.037Z,19.65
2018-08-09T05:43:53.094Z,19.54
2018-08-09T05:46:21.844Z,19.77
2018-08-09T05:48:50.645Z,20.10
2018-08-09T05:51:19.300Z,20.20
2018-08-09T05:53:47.838Z,20.04
2018-08-09T05:56:17.063Z,19.67
2018-08-09T05:58:46.701Z,19.88
2018-08-09T06:01:16.252Z,20.07
2018-08-09T06:03:45.635Z,20.12
2018-08-09T06:06:15.093Z,20.21
2018-08-09T06:08:43.706Z,20.08
2018-08-09T06:11:12.522Z,19.98
2018-08-09T06:13:41.838Z,20.26
2018-08-09T06:16:10.694Z,20.70
2018-08-09T06:18:39.225Z,20.72
2018-08-09T06:21:09.471Z,20.89
2018-08-09T06:23:37.999Z,21.60
2018-08-09T06:26:07.759Z,21.25
2018-08-09T06:28:36.818Z,21.11
2018-08-09T06:31:05.376Z,20.96
2018-08-09T06:33:34.537Z,20.93
2018-08-09T06:36:03.041Z,21.21
2018-08-09T06:38:31.566Z,21.67
2018-08-09T06:41:00.832Z,22.19
2018-08-09T06:43:29.356Z,22.86
2018-08-09T06:45:57.914Z,22.93
2018-08-09T06:48:26.470Z,23.36
2018-08-09T06:50:56.387Z,23.15
2018-08-09T06:53:26.015Z,22.93
2018-08-09T06:55:54.543Z,22.77
2018-08-09T06:58:23.137Z,22.72
2018-08-09T07:00:51.593Z,22.51
2018-08-09T07:03:20.098Z,22.89
2018-08-09T07:05:48.581Z,23.83
2018-08-09T07:08:17.071Z,24.57
2018-08-09T07:10:45.612Z,25.05
2018-08-09T07:13:14.113Z,24.97
2018-08-09T07:15:42.562Z,25.11
2018-08-09T07:18:11.078Z,23.79
2018-08-09T07:20:39.518Z,24.88
2018-08-09T07:23:09.927Z,25.39
2018-08-09T07:25:42.770Z,25.76
2018-08-09T07:28:11.873Z,25.97
2018-08-09T07:30:40.310Z,26.43
2018-08-09T07:33:08.788Z,27.29
2018-08-09T07:35:37.275Z,27.09
2018-08-09T07:38:05.916Z,27.34
2018-08-09T07:40:34.387Z,28.58
2018-08-09T07:43:03.147Z,29.81
2018-08-09T07:45:31.606Z,30.60
2018-08-09T07:48:00.648Z,30.25
2018-08-09T07:50:29.868Z,30.91
2018-08-09T07:52:58.668Z,30.26
2018-08-09T07:55:27.763Z,29.54
2018-08-09T07:57:57.327Z,29.97
2018-08-09T08:00:25.923Z,30.83
2018-08-09T08:02:55.186Z,29.00
2018-08-09T08:05:24.439Z,30.13
2018-08-09T08:07:53.077Z,30.08
2018-08-09T08:10:21.596Z,29.81
2018-08-09T08:12:50.273Z,31.15
2018-08-09T08:15:19.000Z,31.52
2018-08-09T08:17:48.261Z,30.98
2018-08-09T08:20:17.078Z,32.40
2018-08-09T08:22:46.404Z,29.25
2018-08-09T08:25:16.255Z,31.03
2018-08-09T08:27:45.239Z,31.96
2018-08-09T08:30:15.408Z,31.63
2018-08-09T08:32:44.860Z,32.57
2018-08-09T08:35:13.770Z,32.45
2018-08-09T08:37:43.026Z,31.82
2018-08-09T08:40:11.913Z,31.20
2018-08-09T08:42:40.746Z,32.52
2018-08-09T08:45:13.242Z,31.30
2018-08-09T08:47:42.602Z,33.25
2018-08-09T08:50:12.284Z,33.70
2018-08-09T08:52:40.805Z,33.51
2018-08-09T08:55:12.519Z,33.00
2018-08-09T08:57:41.831Z,33.56
2018-08-09T09:00:12.709Z,32.95
2018-08-09T09:02:43.199Z,32.79
2018-08-09T09:05:15.610Z,32.99
2018-08-09T09:07:45.075Z,34.03
2018-08-09T09:10:15.292Z,33.99
2018-08-09T09:12:44.251Z,34.53
2018-08-09T09:15:15.182Z,34.44
2018-08-09T09:17:44.412Z,34.86
2018-08-09T09:20:15.535Z,34.62
2018-08-09T09:22:45.010Z,34.96
2018-08-09T09:25:14.741Z,34.62
2018-08-09T09:27:43.444Z,35.80
2018-08-09T09:30:13.671Z,35.25
2018-08-09T09:32:42.556Z,35.85
2018-08-09T09:35:11.169Z,35.96
2018-08-09T09:37:41.292Z,35.76
2018-08-09T09:40:10.923Z,35.79
2018-08-09T09:42:41.129Z,35.28
2018-08-09T09:45:10.769Z,35.12
2018-08-09T09:47:39.678Z,34.54
2018-08-09T09:50:10.672Z,34.44
2018-08-09T09:52:42.161Z,35.38
2018-08-09T09:55:12.119Z,35.14
2018-08-09T09:57:40.961Z,35.96
2018-08-09T10:00:18.228Z,36.14
2018-08-09T10:02:48.064Z,36.09
2018-08-09T10:05:17.965Z,36.07
2018-08-09T10:07:47.114Z,35.50
2018-08-09T10:10:17.000Z,35.97
2018-08-09T10:12:47.005Z,35.13
2018-08-09T10:15:15.840Z,34.98
2018-08-09T10:17:47.925Z,35.70
2018-08-09T10:20:16.893Z,35.91
2018-08-09T10:22:46.222Z,36.08
2018-08-09T10:25:15.514Z,35.66
2018-08-09T10:27:44.078Z,34.99
2018-08-09T10:30:12.808Z,34.03
2018-08-09T10:32:42.155Z,35.73
2018-08-09T10:35:11.763Z,36.17
2018-08-09T10:37:40.912Z,36.09
2018-08-09T10:40:10.261Z,36.37
2018-08-09T10:42:39.621Z,35.82
2018-08-09T10:45:08.799Z,35.18
2018-08-09T10:47:39.029Z,34.78
2018-08-09T10:50:09.163Z,36.19
2018-08-09T10:52:38.689Z,36.54
2018-08-09T10:55:08.108Z,36.45
2018-08-09T10:57:38.197Z,36.88
2018-08-09T11:00:09.170Z,35.98
2018-08-09T11:02:38.627Z,35.23
2018-08-09T11:05:09.843Z,35.34
2018-08-09T11:07:39.111Z,34.77
2018-08-09T11:10:08.863Z,34.93
2018-08-09T11:12:37.768Z,34.67
2018-08-09T11:15:09.312Z,33.98
2018-08-09T11:17:38.143Z,33.68
2018-08-09T11:20:07.004Z,32.51
2018-08-09T11:22:36.124Z,32.97
2018-08-09T11:25:06.132Z,32.47
2018-08-09T11:27:35.303Z,32.46
2018-08-09T11:30:04.570Z,32.13
2018-08-09T11:32:33.946Z,31.87
2018-08-09T11:35:03.625Z,31.71
2018-08-09T11:37:36.024Z,31.54
2018-08-09T11:40:05.486Z,31.24
2018-08-09T11:42:34.706Z,30.95
2018-08-09T11:45:05.426Z,30.86
2018-08-09T11:47:36.304Z,30.86
2018-08-09T11:50:05.009Z,29.37
2018-08-09T11:52:33.602Z,25.93
2018-08-09T11:55:02.068Z,24.17
2018-08-09T11:57:30.566Z,22.45
2018-08-09T11:59:59.350Z,22.45
2018-08-09T12:02:27.883Z,21.78
2018-08-09T12:04:56.797Z,22.08
2018-08-09T12:07:25.320Z,21.96
2018-08-09T12:09:53.833Z,21.96
2018-08-09T12:12:22.409Z,21.76
2018-08-09T12:14:51.520Z,22.34
2018-08-09T12:17:20.224Z,22.09
2018-08-09T12:19:48.997Z,22.13
2018-08-09T12:22:17.495Z,21.89
2018-08-09T12:24:47.010Z,22.28
2018-08-09T12:27:15.621Z,22.62
2018-08-09T12:29:44.105Z,22.62
2018-08-09T12:32:13.414Z,22.51
2018-08-09T12:34:42.204Z,22.37
2018-08-09T12:37:10.884Z,22.29
2018-08-09T12:39:39.433Z,22.42
2018-08-09T12:42:07.967Z,22.49
2018-08-09T12:44:39.062Z,22.45
2018-08-09T12:47:07.643Z,22.44
2018-08-09T12:49:36.345Z,22.53
2018-08-09T12:52:05.569Z,22.49
2018-08-09T12:54:34.770Z,22.92
2018-08-09T12:57:03.689Z,23.24
2018-08-09T12:59:32.458Z,23.39
2018-08-09T13:02:02.275Z,23.49
2018-08-09T13:04:31.291Z,23.81
2018-08-09T13:07:01.286Z,23.95
2018-08-09T13:09:31.126Z,23.82
2018-08-09T13:12:01.334Z,24.00
2018-08-09T13:14:30.562Z,23.83
2018-08-09T13:17:00.912Z,23.88
2018-08-09T13:19:30.959Z,23.91
2018-08-09T13:22:00.687Z,24.11
2018-08-09T13:24:29.883Z,24.21
2018-08-09T13:26:59.542Z,24.07
2018-08-09T13:29:28.341Z,24.20
2018-08-09T13:31:57.485Z,23.68
2018-08-09T13:34:26.232Z,23.84
2018-08-09T13:36:56.094Z,23.07
2018-08-09T13:39:24.738Z,23.30
2018-08-09T13:41:53.203Z,23.21
2018-08-09T13:44:22.201Z,23.60
2018-08-09T13:46:51.470Z,23.60
2018-08-09T13:49:21.564Z,24.04
2018-08-09T13:51:52.186Z,24.08
2018-08-09T13:54:22.135Z,23.86
2018-08-09T13:56:51.793Z,23.74
2018-08-09T13:59:20.430Z,23.74
2018-08-09T14:01:50.014Z,23.60
2018-08-09T14:04:18.824Z,23.36
2018-08-09T14:06:47.463Z,23.56
2018-08-09T14:09:16.601Z,23.35
2018-08-09T14:11:45.837Z,23.47
2018-08-09T14:14:14.353Z,23.77
2018-08-09T14:16:43.752Z,23.31
2018-08-09T14:19:12.322Z,23.35
2018-08-09T14:21:40.887Z,23.53
2018-08-09T14:24:10.554Z,23.64
2018-08-09T14:26:40.035Z,23.76
2018-08-09T14:29:09.642Z,23.41
2018-08-09T14:31:39.023Z,23.59
2018-08-09T14:34:07.791Z,23.54
2018-08-09T14:36:36.553Z,23.36
2018-08-09T14:39:08.581Z,23.49
2018-08-09T14:41:37.071Z,23.16
2018-08-09T14:44:06.230Z,23.52
2018-08-09T14:46:36.112Z,24.03
2018-08-09T14:49:04.867Z,24.35
2018-08-09T14:51:34.373Z,24.53
2018-08-09T14:54:03.167Z,24.43
2018-08-09T14:56:31.777Z,24.44
2018-08-09T14:59:01.582Z,24.29
2018-08-09T15:01:30.157Z,23.76
2018-08-09T15:03:58.918Z,23.58
2018-08-09T15:06:27.814Z,23.55
2018-08-09T15:08:56.899Z,23.80
2018-08-09T15:11:27.747Z,23.25
2018-08-09T15:13:57.299Z,23.90
2018-08-09T15:16:26.946Z,23.93
2018-08-09T15:18:55.871Z,24.25
2018-08-09T15:21:24.704Z,24.20
2018-08-09T15:23:53.475Z,24.41
2018-08-09T15:26:22.036Z,24.38
2018-08-09T15:28:50.739Z,24.55
2018-08-09T15:31:20.680Z,24.52
2018-08-09T15:33:49.309Z,24.52
2018-08-09T15:36:18.366Z,24.73
2018-08-09T15:38:47.549Z,24.59
2018-08-09T15:41:16.467Z,24.67
2018-08-09T15:43:45.602Z,24.79
2018-08-09T15:46:14.207Z,24.81
2018-08-09T15:48:42.740Z,24.72
2018-08-09T15:51:11.244Z,24.54
2018-08-09T15:53:39.847Z,24.28
2018-08-09T15:56:08.420Z,24.34
2018-08-09T15:58:37.053Z,24.28
2018-08-09T16:01:06.089Z,24.13
2018-08-09T16:03:34.607Z,24.16
2018-08-09T16:06:03.147Z,24.05
2018-08-09T16:08:31.789Z,24.14
2018-08-09T16:11:00.551Z,24.00
2018-08-09T16:13:29.282Z,24.15
2018-08-09T16:15:57.787Z,24.07
2018-08-09T16:18:26.482Z,24.12
2018-08-09T16:20:55.001Z,24.20
2018-08-09T16:23:23.509Z,24.19
2018-08-09T16:25:52.019Z,24.38
2018-08-09T16:28:20.627Z,24.60
2018-08-09T16:30:49.855Z,24.11
2018-08-09T16:33:18.284Z,24.09
2018-08-09T16:35:46.846Z,23.80
2018-08-09T16:38:15.531Z,23.86
2018-08-09T16:40:44.719Z,24.01
2018-08-09T16:43:13.345Z,23.98
2018-08-09T16:45:41.829Z,23.96
2018-08-09T16:48:10.549Z,23.77
2018-08-09T16:50:40.444Z,23.93
2018-08-09T16:53:09.586Z,23.90
2018-08-09T16:55:38.730Z,23.80
2018-08-09T16:58:07.353Z,23.51
2018-08-09T17:00:36.136Z,23.59
2018-08-09T17:03:06.675Z,23.58
2018-08-09T17:05:35.289Z,23.64
2018-08-09T17:08:03.800Z,23.84
2018-08-09T17:10:32.960Z,23.58
2018-08-09T17:13:02.020Z,23.49
2018-08-09T17:15:30.692Z,23.44
2018-08-09T17:17:59.636Z,23.52
2018-08-09T17:20:31.150Z,23.57
2018-08-09T17:23:00.602Z,23.25
2018-08-09T17:25:29.198Z,23.47
2018-08-09T17:27:57.880Z,23.31
2018-08-09T17:30:28.390Z,23.20
2018-08-09T17:32:58.461Z,23.26
2018-08-09T17:35:27.023Z,23.20
2018-08-09T17:37:55.683Z,23.15
2018-08-09T17:40:26.598Z,23.17
2018-08-09T17:42:55.964Z,23.30
2018-08-09T17:45:26.156Z,23.13
2018-08-09T17:47:55.466Z,23.00
2018-08-09T17:50:23.931Z,22.83
2018-08-09T17:52:52.600Z,22.94
2018-08-09T17:55:21.513Z,22.78
2018-08-09T17:57:50.092Z,23.08
2018-08-09T18:00:22.252Z,23.00
2018-08-09T18:02:52.262Z,22.86
2018-08-09T18:05:21.975Z,22.76
2018-08-09T18:07:50.846Z,22.56
2018-08-09T18:10:22.698Z,22.54
2018-08-09T18:12:51.703Z,22.46
2018-08-09T18:20:41.432Z,22.23
2018-08-09T18:23:11.798Z,22.18
2018-08-09T18:25:41.533Z,22.14
2018-08-09T18:28:10.881Z,22.18
2018-08-09T18:30:39.587Z,22.10
2018-08-09T18:33:08.188Z,22.06
2018-08-09T18:35:38.022Z,22.10
2018-08-09T18:38:07.757Z,22.17
2018-08-09T18:40:36.446Z,22.10
2018-08-09T18:43:05.483Z,22.22
2018-08-09T18:45:35.173Z,22.15
2018-08-09T18:48:04.613Z,22.16
2018-08-09T18:50:33.425Z,22.24
2018-08-09T18:53:02.952Z,22.00
2018-08-09T18:55:31.997Z,22.00
2018-08-09T18:58:01.986Z,21.91
2018-08-09T19:00:31.286Z,21.94
2018-08-09T19:03:01.110Z,21.93
2018-08-09T19:05:30.535Z,21.88
2018-08-09T19:08:00.381Z,21.90
2018-08-09T19:10:30.909Z,21.90
2018-08-09T19:13:00.527Z,21.84
2018-08-09T19:15:29.305Z,21.70
2018-08-09T19:17:58.201Z,21.65
2018-08-09T19:20:33.786Z,21.72
2018-08-09T19:23:02.887Z,21.58
2018-08-09T19:25:31.343Z,21.58
2018-08-09T19:28:01.380Z,21.46
2018-08-09T19:30:31.526Z,21.43
2018-08-09T19:33:00.667Z,21.50
2018-08-09T19:35:30.465Z,21.23
2018-08-09T19:38:02.122Z,21.07
2018-08-09T19:40:35.584Z,21.00
2018-08-09T19:43:05.721Z,21.01
2018-08-09T19:45:35.758Z,20.76
2018-08-09T19:48:07.890Z,20.67
2018-08-09T19:50:38.738Z,20.65
2018-08-09T19:53:07.762Z,20.66
2018-08-09T19:55:37.261Z,20.45
2018-08-09T19:58:07.760Z,20.44
2018-08-09T20:00:37.404Z,20.48
2018-08-09T20:03:07.347Z,20.38
2018-08-09T20:05:36.618Z,20.32
2018-08-09T20:08:05.899Z,20.32
2018-08-09T20:10:36.223Z,20.11
2018-08-09T20:13:06.777Z,20.18
2018-08-09T20:15:38.383Z,20.18
2018-08-09T20:18:09.336Z,20.17
2018-08-09T20:20:40.187Z,20.12
2018-08-09T20:23:12.050Z,20.03
2018-08-09T20:25:41.543Z,20.00
2018-08-09T20:28:11.733Z,19.93
2018-08-09T20:30:42.140Z,19.99
2018-08-09T20:33:10.892Z,19.86
2018-08-09T20:35:39.705Z,19.81
2018-08-09T20:38:08.874Z,19.70
2018-08-09T20:40:38.808Z,19.77
2018-08-09T20:43:07.253Z,19.81
2018-08-09T20:45:36.229Z,19.68
2018-08-09T20:48:04.716Z,19.77
2018-08-09T20:50:34.093Z,19.76
2018-08-09T20:53:03.030Z,19.63
2018-08-09T20:55:32.106Z,19.69
2018-08-09T20:58:00.556Z,19.65
2018-08-09T21:00:32.179Z,19.61
2018-08-09T21:03:02.137Z,19.54
2018-08-09T21:05:34.029Z,19.47
2018-08-09T21:08:03.741Z,19.40
2018-08-09T21:10:32.370Z,19.33
2018-08-09T21:13:00.889Z,19.47
2018-08-09T21:15:30.197Z,19.40
2018-08-09T21:17:58.824Z,19.40
2018-08-09T21:20:27.322Z,19.28
2018-08-09T21:22:56.607Z,19.32
2018-08-09T21:25:25.393Z,19.31
2018-08-09T21:27:53.907Z,19.32
2018-08-09T21:30:23.604Z,19.16
2018-08-09T21:32:52.701Z,19.17
2018-08-09T21:35:21.557Z,19.14
2018-08-09T21:37:50.216Z,19.23
2018-08-09T21:40:18.756Z,19.21
2018-08-09T21:42:47.569Z,19.14
2018-08-09T21:45:19.940Z,19.19
2018-08-09T21:47:50.072Z,19.11
2018-08-09T21:50:22.096Z,18.97
2018-08-09T21:52:50.640Z,19.05
2018-08-09T21:55:20.413Z,19.03
2018-08-09T21:57:49.590Z,19.09
2018-08-09T22:00:32.621Z,18.95
2018-08-09T22:03:02.950Z,18.84
2018-08-09T22:05:37.386Z,18.78
2018-08-09T22:08:12.395Z,18.70
2018-08-09T22:10:46.866Z,18.69
2018-08-09T22:13:21.038Z,18.69
2018-08-09T22:15:55.074Z,18.63
2018-08-09T22:18:36.784Z,18.71
2018-08-09T22:21:11.155Z,18.71
2018-08-09T22:23:42.000Z,18.61
2018-08-09T22:26:11.836Z,18.70
2018-08-09T22:28:43.103Z,18.56
2018-08-09T22:31:12.537Z,18.41
2018-08-09T22:33:41.676Z,18.39
2018-08-09T22:36:11.555Z,18.30
2018-08-09T22:38:40.523Z,18.17
2018-08-09T22:41:10.009Z,18.23
2018-08-09T22:43:40.146Z,18.14
2018-08-09T22:46:09.479Z,18.07
2018-08-09T22:48:40.014Z,18.00
2018-08-09T22:51:11.047Z,17.93
2018-08-09T22:53:41.007Z,17.69
2018-08-09T22:56:10.021Z,17.74
2018-08-09T22:58:40.721Z,17.55
2018-08-09T23:01:09.509Z,17.46
2018-08-09T23:03:39.047Z,17.54
2018-08-09T23:06:08.734Z,17.43
2018-08-09T23:08:37.822Z,17.45
2018-08-09T23:11:08.002Z,17.14
2018-08-09T23:13:37.268Z,17.16
2018-08-09T23:16:06.909Z,17.18
2018-08-09T23:18:35.819Z,17.06
2018-08-09T23:21:04.331Z,17.00
2018-08-09T23:23:32.927Z,17.05
2018-08-09T23:26:01.694Z,17.05
2018-08-09T23:28:30.964Z,16.98
2018-08-09T23:30:59.504Z,17.01
2018-08-09T23:33:28.300Z,16.80
2018-08-09T23:35:57.481Z,16.74
2018-08-09T23:38:26.424Z,16.70
2018-08-09T23:40:55.967Z,16.70
2018-08-09T23:43:24.427Z,16.67
2018-08-09T23:45:52.882Z,16.63
2018-08-09T23:48:21.312Z,16.71
2018-08-09T23:50:49.773Z,16.71
2018-08-09T23:53:18.303Z,16.78
2018-08-09T23:55:47.660Z,16.79
2018-08-09T23:58:16.624Z,16.53
